sensor_id;sensor_type;location;lat;lon;timestamp;P1;durP1;ratioP1;P2;durP2;ratioP2
12802;SDS011;6465;42.700;23.278;2024-01-16T00:01:22;14.87;;;10.00;;
12802;SDS011;6465;42.700;23.278;2024-01-16T00:03:49;14.47;;;10.60;;
12802;SDS011;6465;42.700;23.278;2024-01-16T00:06:16;10.63;;;9.20;;
12802;SDS011;6465;42.700;23.278;2024-01-16T00:08:43;10.97;;;9.03;;
12802;SDS011;6465;42.700;23.278;2024-01-16T00:11:10;12.80;;;9.73;;
12802;SDS011;6465;42.700;23.278;2024-01-16T00:13:38;11.13;;;8.53;;
12802;SDS011;6465;42.700;23.278;2024-01-16T00:16:05;10.87;;;8.57;;
12802;SDS011;6465;42.700;23.278;2024-01-16T00:18:32;12.73;;;10.37;;
12802;SDS011;6465;42.700;23.278;2024-01-16T00:21:00;11.27;;;9.33;;
12802;SDS011;6465;42.700;23.278;2024-01-16T00:23:27;10.47;;;9.23;;
12802;SDS011;6465;42.700;23.278;2024-01-16T00:25:56;12.73;;;10.63;;
12802;SDS011;6465;42.700;23.278;2024-01-16T00:28:23;13.00;;;9.70;;
12802;SDS011;6465;42.700;23.278;2024-01-16T00:30:52;11.33;;;10.13;;
12802;SDS011;6465;42.700;23.278;2024-01-16T00:33:19;12.63;;;10.20;;
12802;SDS011;6465;42.700;23.278;2024-01-16T00:35:46;10.23;;;8.50;;
12802;SDS011;6465;42.700;23.278;2024-01-16T00:38:13;12.30;;;8.77;;
12802;SDS011;6465;42.700;23.278;2024-01-16T00:40:40;10.20;;;9.00;;
12802;SDS011;6465;42.700;23.278;2024-01-16T00:43:06;12.43;;;9.00;;
12802;SDS011;6465;42.700;23.278;2024-01-16T00:45:33;10.80;;;8.27;;
12802;SDS011;6465;42.700;23.278;2024-01-16T00:48:03;11.33;;;9.07;;
12802;SDS011;6465;42.700;23.278;2024-01-16T00:50:31;10.97;;;8.93;;
12802;SDS011;6465;42.700;23.278;2024-01-16T00:52:58;12.57;;;8.37;;
12802;SDS011;6465;42.700;23.278;2024-01-16T00:55:25;9.47;;;7.73;;
12802;SDS011;6465;42.700;23.278;2024-01-16T00:57:52;9.97;;;8.37;;
12802;SDS011;6465;42.700;23.278;2024-01-16T01:00:19;10.53;;;8.07;;
12802;SDS011;6465;42.700;23.278;2024-01-16T01:02:46;8.87;;;7.93;;
12802;SDS011;6465;42.700;23.278;2024-01-16T01:05:14;10.20;;;8.40;;
12802;SDS011;6465;42.700;23.278;2024-01-16T01:07:41;11.70;;;9.10;;
12802;SDS011;6465;42.700;23.278;2024-01-16T01:10:09;14.43;;;11.10;;
12802;SDS011;6465;42.700;23.278;2024-01-16T01:12:36;13.57;;;11.23;;
12802;SDS011;6465;42.700;23.278;2024-01-16T01:15:03;12.53;;;10.80;;
12802;SDS011;6465;42.700;23.278;2024-01-16T01:17:31;12.73;;;10.70;;
12802;SDS011;6465;42.700;23.278;2024-01-16T01:19:58;14.20;;;10.87;;
12802;SDS011;6465;42.700;23.278;2024-01-16T01:22:26;16.47;;;12.17;;
12802;SDS011;6465;42.700;23.278;2024-01-16T01:24:53;16.13;;;12.17;;
12802;SDS011;6465;42.700;23.278;2024-01-16T01:27:20;13.10;;;11.13;;
12802;SDS011;6465;42.700;23.278;2024-01-16T01:29:47;14.13;;;11.93;;
12802;SDS011;6465;42.700;23.278;2024-01-16T01:32:14;15.97;;;12.03;;
12802;SDS011;6465;42.700;23.278;2024-01-16T01:34:41;17.83;;;12.20;;
12802;SDS011;6465;42.700;23.278;2024-01-16T01:37:08;14.43;;;11.67;;
12802;SDS011;6465;42.700;23.278;2024-01-16T01:39:36;16.80;;;12.47;;
12802;SDS011;6465;42.700;23.278;2024-01-16T01:42:03;12.40;;;10.17;;
12802;SDS011;6465;42.700;23.278;2024-01-16T01:44:30;14.27;;;11.00;;
12802;SDS011;6465;42.700;23.278;2024-01-16T01:46:57;11.67;;;9.73;;
12802;SDS011;6465;42.700;23.278;2024-01-16T01:49:25;12.30;;;10.10;;
12802;SDS011;6465;42.700;23.278;2024-01-16T01:51:53;12.13;;;9.93;;
12802;SDS011;6465;42.700;23.278;2024-01-16T01:54:20;13.50;;;9.93;;
12802;SDS011;6465;42.700;23.278;2024-01-16T01:56:49;7.33;;;6.13;;
12802;SDS011;6465;42.700;23.278;2024-01-16T01:59:17;13.33;;;10.40;;
12802;SDS011;6465;42.700;23.278;2024-01-16T02:01:44;8.50;;;7.53;;
12802;SDS011;6465;42.700;23.278;2024-01-16T02:04:13;11.07;;;8.93;;
12802;SDS011;6465;42.700;23.278;2024-01-16T02:06:41;13.17;;;10.60;;
12802;SDS011;6465;42.700;23.278;2024-01-16T02:09:09;13.53;;;10.20;;
12802;SDS011;6465;42.700;23.278;2024-01-16T02:11:38;8.47;;;7.53;;
12802;SDS011;6465;42.700;23.278;2024-01-16T02:14:07;9.37;;;8.10;;
12802;SDS011;6465;42.700;23.278;2024-01-16T02:16:35;10.73;;;8.67;;
12802;SDS011;6465;42.700;23.278;2024-01-16T02:19:04;10.60;;;8.53;;
12802;SDS011;6465;42.700;23.278;2024-01-16T02:21:32;14.63;;;10.93;;
12802;SDS011;6465;42.700;23.278;2024-01-16T02:24:04;19.13;;;12.97;;
12802;SDS011;6465;42.700;23.278;2024-01-16T02:26:32;18.13;;;13.60;;
12802;SDS011;6465;42.700;23.278;2024-01-16T02:29:00;19.53;;;13.70;;
12802;SDS011;6465;42.700;23.278;2024-01-16T02:31:27;20.80;;;13.73;;
12802;SDS011;6465;42.700;23.278;2024-01-16T02:33:54;15.07;;;10.13;;
12802;SDS011;6465;42.700;23.278;2024-01-16T02:36:21;16.93;;;13.03;;
12802;SDS011;6465;42.700;23.278;2024-01-16T02:38:48;13.30;;;10.63;;
12802;SDS011;6465;42.700;23.278;2024-01-16T02:41:16;12.30;;;9.97;;
12802;SDS011;6465;42.700;23.278;2024-01-16T02:43:44;10.57;;;8.17;;
12802;SDS011;6465;42.700;23.278;2024-01-16T02:46:10;9.03;;;7.93;;
12802;SDS011;6465;42.700;23.278;2024-01-16T02:48:38;9.20;;;8.03;;
12802;SDS011;6465;42.700;23.278;2024-01-16T02:51:05;11.90;;;8.73;;
12802;SDS011;6465;42.700;23.278;2024-01-16T02:53:32;10.00;;;8.37;;
12802;SDS011;6465;42.700;23.278;2024-01-16T02:55:59;9.70;;;8.50;;
12802;SDS011;6465;42.700;23.278;2024-01-16T02:58:28;8.80;;;6.33;;
12802;SDS011;6465;42.700;23.278;2024-01-16T03:00:56;7.83;;;7.10;;
12802;SDS011;6465;42.700;23.278;2024-01-16T03:03:23;6.27;;;5.60;;
12802;SDS011;6465;42.700;23.278;2024-01-16T03:05:50;6.00;;;4.77;;
12802;SDS011;6465;42.700;23.278;2024-01-16T03:08:17;3.40;;;3.10;;
12802;SDS011;6465;42.700;23.278;2024-01-16T03:10:44;3.03;;;2.73;;
12802;SDS011;6465;42.700;23.278;2024-01-16T03:13:11;2.67;;;2.50;;
12802;SDS011;6465;42.700;23.278;2024-01-16T03:15:40;3.50;;;3.20;;
12802;SDS011;6465;42.700;23.278;2024-01-16T03:18:07;3.63;;;3.33;;
12802;SDS011;6465;42.700;23.278;2024-01-16T03:20:34;4.63;;;4.23;;
12802;SDS011;6465;42.700;23.278;2024-01-16T03:23:01;4.00;;;3.70;;
12802;SDS011;6465;42.700;23.278;2024-01-16T03:25:29;4.27;;;3.87;;
12802;SDS011;6465;42.700;23.278;2024-01-16T03:27:56;5.53;;;5.03;;
12802;SDS011;6465;42.700;23.278;2024-01-16T03:30:23;5.00;;;4.60;;
12802;SDS011;6465;42.700;23.278;2024-01-16T03:32:51;4.90;;;4.27;;
12802;SDS011;6465;42.700;23.278;2024-01-16T03:35:18;4.63;;;4.23;;
12802;SDS011;6465;42.700;23.278;2024-01-16T03:37:45;4.00;;;3.70;;
12802;SDS011;6465;42.700;23.278;2024-01-16T03:40:12;3.80;;;3.60;;
12802;SDS011;6465;42.700;23.278;2024-01-16T03:42:39;3.80;;;3.50;;
12802;SDS011;6465;42.700;23.278;2024-01-16T03:45:06;3.43;;;3.23;;
12802;SDS011;6465;42.700;23.278;2024-01-16T03:47:34;3.30;;;3.10;;
12802;SDS011;6465;42.700;23.278;2024-01-16T03:50:02;3.23;;;3.00;;
12802;SDS011;6465;42.700;23.278;2024-01-16T03:52:29;3.27;;;3.00;;
12802;SDS011;6465;42.700;23.278;2024-01-16T03:54:56;3.00;;;2.80;;
12802;SDS011;6465;42.700;23.278;2024-01-16T03:57:23;3.20;;;2.90;;
12802;SDS011;6465;42.700;23.278;2024-01-16T03:59:50;2.57;;;2.47;;
12802;SDS011;6465;42.700;23.278;2024-01-16T04:02:17;3.30;;;3.10;;
12802;SDS011;6465;42.700;23.278;2024-01-16T04:04:44;2.30;;;2.20;;
12802;SDS011;6465;42.700;23.278;2024-01-16T04:07:13;2.50;;;2.37;;
12802;SDS011;6465;42.700;23.278;2024-01-16T04:09:41;2.10;;;2.00;;
12802;SDS011;6465;42.700;23.278;2024-01-16T04:12:08;2.20;;;2.10;;
12802;SDS011;6465;42.700;23.278;2024-01-16T04:14:36;2.10;;;2.00;;
12802;SDS011;6465;42.700;23.278;2024-01-16T04:17:03;1.90;;;1.80;;
12802;SDS011;6465;42.700;23.278;2024-01-16T04:19:30;2.57;;;2.10;;
12802;SDS011;6465;42.700;23.278;2024-01-16T04:21:59;1.80;;;1.70;;
12802;SDS011;6465;42.700;23.278;2024-01-16T04:24:28;2.17;;;2.00;;
12802;SDS011;6465;42.700;23.278;2024-01-16T04:26:54;2.00;;;1.90;;
12802;SDS011;6465;42.700;23.278;2024-01-16T04:29:21;1.90;;;1.80;;
12802;SDS011;6465;42.700;23.278;2024-01-16T04:31:48;1.70;;;1.70;;
12802;SDS011;6465;42.700;23.278;2024-01-16T04:34:15;1.63;;;1.63;;
12802;SDS011;6465;42.700;23.278;2024-01-16T04:36:42;1.90;;;1.80;;
12802;SDS011;6465;42.700;23.278;2024-01-16T04:39:09;1.70;;;1.70;;
12802;SDS011;6465;42.700;23.278;2024-01-16T04:41:38;1.70;;;1.70;;
12802;SDS011;6465;42.700;23.278;2024-01-16T04:44:05;2.13;;;2.03;;
12802;SDS011;6465;42.700;23.278;2024-01-16T04:46:32;1.70;;;1.70;;
12802;SDS011;6465;42.700;23.278;2024-01-16T04:48:59;1.77;;;1.70;;
12802;SDS011;6465;42.700;23.278;2024-01-16T04:51:26;1.77;;;1.67;;
12802;SDS011;6465;42.700;23.278;2024-01-16T04:53:53;1.53;;;1.53;;
12802;SDS011;6465;42.700;23.278;2024-01-16T04:56:20;1.57;;;1.57;;
12802;SDS011;6465;42.700;23.278;2024-01-16T04:58:48;1.50;;;1.50;;
12802;SDS011;6465;42.700;23.278;2024-01-16T05:01:15;1.50;;;1.50;;
12802;SDS011;6465;42.700;23.278;2024-01-16T05:03:43;1.60;;;1.60;;
12802;SDS011;6465;42.700;23.278;2024-01-16T05:06:13;2.20;;;2.10;;
12802;SDS011;6465;42.700;23.278;2024-01-16T05:08:40;2.00;;;1.90;;
12802;SDS011;6465;42.700;23.278;2024-01-16T05:11:07;1.60;;;1.60;;
12802;SDS011;6465;42.700;23.278;2024-01-16T05:13:35;1.77;;;1.63;;
12802;SDS011;6465;42.700;23.278;2024-01-16T05:16:03;1.40;;;1.40;;
12802;SDS011;6465;42.700;23.278;2024-01-16T05:18:31;1.80;;;1.80;;
12802;SDS011;6465;42.700;23.278;2024-01-16T05:20:58;1.60;;;1.50;;
12802;SDS011;6465;42.700;23.278;2024-01-16T05:23:27;1.70;;;1.70;;
12802;SDS011;6465;42.700;23.278;2024-01-16T05:25:54;2.30;;;1.57;;
12802;SDS011;6465;42.700;23.278;2024-01-16T05:28:21;1.60;;;1.60;;
12802;SDS011;6465;42.700;23.278;2024-01-16T05:30:48;2.37;;;1.60;;
12802;SDS011;6465;42.700;23.278;2024-01-16T05:33:17;1.87;;;1.77;;
12802;SDS011;6465;42.700;23.278;2024-01-16T05:35:44;1.37;;;1.37;;
12802;SDS011;6465;42.700;23.278;2024-01-16T05:38:11;1.47;;;1.47;;
12802;SDS011;6465;42.700;23.278;2024-01-16T05:40:38;1.27;;;1.27;;
12802;SDS011;6465;42.700;23.278;2024-01-16T05:43:05;1.63;;;1.57;;
12802;SDS011;6465;42.700;23.278;2024-01-16T05:45:32;1.93;;;1.83;;
12802;SDS011;6465;42.700;23.278;2024-01-16T05:47:59;1.37;;;1.33;;
12802;SDS011;6465;42.700;23.278;2024-01-16T05:50:27;1.70;;;1.60;;
12802;SDS011;6465;42.700;23.278;2024-01-16T05:52:55;1.70;;;1.60;;
12802;SDS011;6465;42.700;23.278;2024-01-16T05:55:22;1.63;;;1.53;;
12802;SDS011;6465;42.700;23.278;2024-01-16T05:57:49;1.13;;;1.13;;
12802;SDS011;6465;42.700;23.278;2024-01-16T06:00:16;1.60;;;1.57;;
12802;SDS011;6465;42.700;23.278;2024-01-16T06:02:44;1.63;;;1.63;;
12802;SDS011;6465;42.700;23.278;2024-01-16T06:05:11;1.97;;;1.87;;
12802;SDS011;6465;42.700;23.278;2024-01-16T06:07:40;2.20;;;2.00;;
12802;SDS011;6465;42.700;23.278;2024-01-16T06:10:07;1.70;;;1.60;;
12802;SDS011;6465;42.700;23.278;2024-01-16T06:12:34;1.60;;;1.50;;
12802;SDS011;6465;42.700;23.278;2024-01-16T06:15:02;1.73;;;1.63;;
12802;SDS011;6465;42.700;23.278;2024-01-16T06:17:29;2.10;;;2.00;;
12802;SDS011;6465;42.700;23.278;2024-01-16T06:19:57;1.70;;;1.70;;
12802;SDS011;6465;42.700;23.278;2024-01-16T06:22:24;2.10;;;2.00;;
12802;SDS011;6465;42.700;23.278;2024-01-16T06:24:52;1.67;;;1.67;;
12802;SDS011;6465;42.700;23.278;2024-01-16T06:27:19;1.90;;;1.80;;
12802;SDS011;6465;42.700;23.278;2024-01-16T06:29:46;1.90;;;1.80;;
12802;SDS011;6465;42.700;23.278;2024-01-16T06:32:14;1.70;;;1.60;;
12802;SDS011;6465;42.700;23.278;2024-01-16T06:34:41;2.00;;;1.50;;
12802;SDS011;6465;42.700;23.278;2024-01-16T06:37:09;2.03;;;1.60;;
12802;SDS011;6465;42.700;23.278;2024-01-16T06:39:36;2.70;;;2.00;;
12802;SDS011;6465;42.700;23.278;2024-01-16T06:42:05;2.00;;;1.90;;
12802;SDS011;6465;42.700;23.278;2024-01-16T06:44:33;1.80;;;1.70;;
12802;SDS011;6465;42.700;23.278;2024-01-16T06:47:00;1.53;;;1.50;;
12802;SDS011;6465;42.700;23.278;2024-01-16T06:49:26;2.00;;;1.90;;
12802;SDS011;6465;42.700;23.278;2024-01-16T06:51:53;2.30;;;1.93;;
12802;SDS011;6465;42.700;23.278;2024-01-16T06:54:20;2.10;;;2.00;;
12802;SDS011;6465;42.700;23.278;2024-01-16T06:56:48;2.00;;;1.90;;
12802;SDS011;6465;42.700;23.278;2024-01-16T06:59:17;1.80;;;1.70;;
12802;SDS011;6465;42.700;23.278;2024-01-16T07:01:46;1.40;;;1.40;;
12802;SDS011;6465;42.700;23.278;2024-01-16T07:04:13;2.50;;;2.30;;
12802;SDS011;6465;42.700;23.278;2024-01-16T07:06:40;2.57;;;2.37;;
12802;SDS011;6465;42.700;23.278;2024-01-16T07:09:08;2.10;;;2.00;;
12802;SDS011;6465;42.700;23.278;2024-01-16T07:11:37;1.67;;;1.57;;
12802;SDS011;6465;42.700;23.278;2024-01-16T07:14:07;2.57;;;2.37;;
12802;SDS011;6465;42.700;23.278;2024-01-16T07:16:36;2.40;;;2.20;;
12802;SDS011;6465;42.700;23.278;2024-01-16T07:19:03;1.23;;;1.17;;
12802;SDS011;6465;42.700;23.278;2024-01-16T07:21:31;1.70;;;1.30;;
12802;SDS011;6465;42.700;23.278;2024-01-16T07:23:59;1.20;;;1.20;;
12802;SDS011;6465;42.700;23.278;2024-01-16T07:26:26;1.40;;;1.40;;
12802;SDS011;6465;42.700;23.278;2024-01-16T07:28:53;1.30;;;1.30;;
12802;SDS011;6465;42.700;23.278;2024-01-16T07:31:20;1.50;;;1.50;;
12802;SDS011;6465;42.700;23.278;2024-01-16T07:33:48;1.97;;;1.87;;
12802;SDS011;6465;42.700;23.278;2024-01-16T07:36:15;2.07;;;1.97;;
12802;SDS011;6465;42.700;23.278;2024-01-16T07:38:42;3.93;;;3.60;;
12802;SDS011;6465;42.700;23.278;2024-01-16T07:41:09;2.77;;;2.57;;
12802;SDS011;6465;42.700;23.278;2024-01-16T07:43:36;1.53;;;1.53;;
12802;SDS011;6465;42.700;23.278;2024-01-16T07:46:03;1.80;;;1.70;;
12802;SDS011;6465;42.700;23.278;2024-01-16T07:48:30;1.70;;;1.60;;
12802;SDS011;6465;42.700;23.278;2024-01-16T07:50:58;1.40;;;1.40;;
12802;SDS011;6465;42.700;23.278;2024-01-16T07:53:25;1.60;;;1.60;;
12802;SDS011;6465;42.700;23.278;2024-01-16T07:55:53;1.37;;;1.37;;
12802;SDS011;6465;42.700;23.278;2024-01-16T07:58:21;1.50;;;1.43;;
12802;SDS011;6465;42.700;23.278;2024-01-16T08:00:48;1.30;;;1.30;;
12802;SDS011;6465;42.700;23.278;2024-01-16T08:03:15;1.67;;;1.57;;
12802;SDS011;6465;42.700;23.278;2024-01-16T08:05:42;2.10;;;1.90;;
12802;SDS011;6465;42.700;23.278;2024-01-16T08:08:10;2.07;;;1.97;;
12802;SDS011;6465;42.700;23.278;2024-01-16T08:10:37;2.07;;;1.90;;
12802;SDS011;6465;42.700;23.278;2024-01-16T08:13:04;2.37;;;2.10;;
12802;SDS011;6465;42.700;23.278;2024-01-16T08:15:31;2.20;;;2.10;;
12802;SDS011;6465;42.700;23.278;2024-01-16T08:17:59;2.23;;;2.03;;
12802;SDS011;6465;42.700;23.278;2024-01-16T08:20:27;1.97;;;1.87;;
12802;SDS011;6465;42.700;23.278;2024-01-16T08:22:54;1.60;;;1.60;;
12802;SDS011;6465;42.700;23.278;2024-01-16T08:25:22;1.63;;;1.53;;
12802;SDS011;6465;42.700;23.278;2024-01-16T08:27:49;1.70;;;1.70;;
12802;SDS011;6465;42.700;23.278;2024-01-16T08:30:16;1.50;;;1.50;;
12802;SDS011;6465;42.700;23.278;2024-01-16T08:32:43;1.57;;;1.47;;
12802;SDS011;6465;42.700;23.278;2024-01-16T08:35:10;1.70;;;1.60;;
12802;SDS011;6465;42.700;23.278;2024-01-16T08:37:37;1.60;;;1.50;;
12802;SDS011;6465;42.700;23.278;2024-01-16T08:40:04;1.80;;;1.70;;
12802;SDS011;6465;42.700;23.278;2024-01-16T08:42:34;1.63;;;1.53;;
12802;SDS011;6465;42.700;23.278;2024-01-16T08:45:01;2.50;;;1.90;;
12802;SDS011;6465;42.700;23.278;2024-01-16T08:47:28;2.00;;;1.90;;
12802;SDS011;6465;42.700;23.278;2024-01-16T08:49:55;1.73;;;1.63;;
12802;SDS011;6465;42.700;23.278;2024-01-16T08:52:22;1.63;;;1.63;;
12802;SDS011;6465;42.700;23.278;2024-01-16T08:54:49;1.70;;;1.70;;
12802;SDS011;6465;42.700;23.278;2024-01-16T08:57:16;2.00;;;1.90;;
12802;SDS011;6465;42.700;23.278;2024-01-16T08:59:44;2.17;;;2.07;;
12802;SDS011;6465;42.700;23.278;2024-01-16T09:02:11;2.10;;;2.00;;
12802;SDS011;6465;42.700;23.278;2024-01-16T09:04:38;2.13;;;2.03;;
12802;SDS011;6465;42.700;23.278;2024-01-16T09:07:06;2.07;;;1.97;;
12802;SDS011;6465;42.700;23.278;2024-01-16T09:09:33;2.03;;;1.90;;
12802;SDS011;6465;42.700;23.278;2024-01-16T09:12:01;1.97;;;1.87;;
12802;SDS011;6465;42.700;23.278;2024-01-16T09:14:28;2.20;;;2.10;;
12802;SDS011;6465;42.700;23.278;2024-01-16T09:16:57;2.00;;;1.90;;
12802;SDS011;6465;42.700;23.278;2024-01-16T09:19:24;1.90;;;1.80;;
12802;SDS011;6465;42.700;23.278;2024-01-16T09:21:50;2.20;;;2.00;;
12802;SDS011;6465;42.700;23.278;2024-01-16T09:24:17;2.00;;;1.90;;
12802;SDS011;6465;42.700;23.278;2024-01-16T09:26:45;2.43;;;2.23;;
12802;SDS011;6465;42.700;23.278;2024-01-16T09:29:12;2.17;;;2.00;;
12802;SDS011;6465;42.700;23.278;2024-01-16T09:31:41;1.90;;;1.83;;
12802;SDS011;6465;42.700;23.278;2024-01-16T09:34:10;1.90;;;1.80;;
12802;SDS011;6465;42.700;23.278;2024-01-16T09:36:38;2.17;;;1.90;;
12802;SDS011;6465;42.700;23.278;2024-01-16T09:39:05;2.30;;;2.07;;
12802;SDS011;6465;42.700;23.278;2024-01-16T09:41:34;2.30;;;2.07;;
12802;SDS011;6465;42.700;23.278;2024-01-16T09:44:01;1.77;;;1.67;;
12802;SDS011;6465;42.700;23.278;2024-01-16T09:46:28;1.90;;;1.80;;
12802;SDS011;6465;42.700;23.278;2024-01-16T09:48:57;1.90;;;1.70;;
12802;SDS011;6465;42.700;23.278;2024-01-16T09:51:28;1.90;;;1.80;;
12802;SDS011;6465;42.700;23.278;2024-01-16T09:53:56;4.23;;;2.53;;
12802;SDS011;6465;42.700;23.278;2024-01-16T09:56:23;3.13;;;2.30;;
12802;SDS011;6465;42.700;23.278;2024-01-16T09:58:53;3.00;;;2.30;;
12802;SDS011;6465;42.700;23.278;2024-01-16T10:01:23;2.33;;;2.13;;
12802;SDS011;6465;42.700;23.278;2024-01-16T10:03:53;1.67;;;1.60;;
12802;SDS011;6465;42.700;23.278;2024-01-16T10:06:20;1.90;;;1.80;;
12802;SDS011;6465;42.700;23.278;2024-01-16T10:08:50;1.87;;;1.77;;
12802;SDS011;6465;42.700;23.278;2024-01-16T10:11:17;1.80;;;1.70;;
12802;SDS011;6465;42.700;23.278;2024-01-16T10:13:44;1.47;;;1.47;;
12802;SDS011;6465;42.700;23.278;2024-01-16T10:16:11;1.73;;;1.63;;
12802;SDS011;6465;42.700;23.278;2024-01-16T10:18:38;1.60;;;1.60;;
12802;SDS011;6465;42.700;23.278;2024-01-16T10:21:05;1.43;;;1.43;;
12802;SDS011;6465;42.700;23.278;2024-01-16T10:23:47;2.13;;;2.03;;
12802;SDS011;6465;42.700;23.278;2024-01-16T10:26:15;2.60;;;2.40;;
12802;SDS011;6465;42.700;23.278;2024-01-16T10:28:43;2.30;;;2.20;;
12802;SDS011;6465;42.700;23.278;2024-01-16T10:31:11;2.70;;;2.50;;
12802;SDS011;6465;42.700;23.278;2024-01-16T10:33:40;2.27;;;2.17;;
12802;SDS011;6465;42.700;23.278;2024-01-16T10:36:07;2.17;;;2.07;;
12802;SDS011;6465;42.700;23.278;2024-01-16T10:38:36;2.07;;;1.97;;
12802;SDS011;6465;42.700;23.278;2024-01-16T10:41:04;2.23;;;2.03;;
12802;SDS011;6465;42.700;23.278;2024-01-16T10:43:34;3.20;;;2.20;;
12802;SDS011;6465;42.700;23.278;2024-01-16T10:46:08;2.93;;;2.77;;
12802;SDS011;6465;42.700;23.278;2024-01-16T10:48:38;1.90;;;1.80;;
12802;SDS011;6465;42.700;23.278;2024-01-16T10:51:06;2.93;;;2.60;;
12802;SDS011;6465;42.700;23.278;2024-01-16T10:53:34;2.60;;;2.40;;
12802;SDS011;6465;42.700;23.278;2024-01-16T10:56:03;2.43;;;2.33;;
12802;SDS011;6465;42.700;23.278;2024-01-16T10:58:38;2.10;;;2.00;;
12802;SDS011;6465;42.700;23.278;2024-01-16T11:01:09;1.80;;;1.70;;
12802;SDS011;6465;42.700;23.278;2024-01-16T11:03:38;1.80;;;1.70;;
12802;SDS011;6465;42.700;23.278;2024-01-16T11:06:09;1.63;;;1.53;;
12802;SDS011;6465;42.700;23.278;2024-01-16T11:08:38;1.60;;;1.60;;
12802;SDS011;6465;42.700;23.278;2024-01-16T11:11:06;2.10;;;1.93;;
12802;SDS011;6465;42.700;23.278;2024-01-16T11:13:34;1.77;;;1.67;;
12802;SDS011;6465;42.700;23.278;2024-01-16T11:16:04;2.33;;;2.13;;
12802;SDS011;6465;42.700;23.278;2024-01-16T11:18:33;1.50;;;1.50;;
12802;SDS011;6465;42.700;23.278;2024-01-16T11:21:01;2.37;;;1.90;;
12802;SDS011;6465;42.700;23.278;2024-01-16T11:23:31;1.60;;;1.60;;
12802;SDS011;6465;42.700;23.278;2024-01-16T11:26:00;2.00;;;1.90;;
12802;SDS011;6465;42.700;23.278;2024-01-16T11:28:47;2.00;;;1.90;;
12802;SDS011;6465;42.700;23.278;2024-01-16T11:31:28;2.00;;;1.90;;
12802;SDS011;6465;42.700;23.278;2024-01-16T11:33:56;2.43;;;2.33;;
12802;SDS011;6465;42.700;23.278;2024-01-16T11:39:16;2.23;;;2.13;;
12802;SDS011;6465;42.700;23.278;2024-01-16T11:41:47;2.23;;;2.13;;
12802;SDS011;6465;42.700;23.278;2024-01-16T11:47:32;4.93;;;2.63;;
12802;SDS011;6465;42.700;23.278;2024-01-16T11:50:08;2.73;;;2.43;;
12802;SDS011;6465;42.700;23.278;2024-01-16T11:52:39;2.60;;;2.27;;
12802;SDS011;6465;42.700;23.278;2024-01-16T11:57:56;3.37;;;2.40;;
12802;SDS011;6465;42.700;23.278;2024-01-16T12:00:42;3.33;;;2.10;;
12802;SDS011;6465;42.700;23.278;2024-01-16T12:03:13;2.10;;;2.00;;
12802;SDS011;6465;42.700;23.278;2024-01-16T12:05:42;2.40;;;2.20;;
12802;SDS011;6465;42.700;23.278;2024-01-16T12:08:10;2.37;;;1.90;;
12802;SDS011;6465;42.700;23.278;2024-01-16T12:10:45;1.80;;;1.70;;
12802;SDS011;6465;42.700;23.278;2024-01-16T12:13:13;2.00;;;1.90;;
12802;SDS011;6465;42.700;23.278;2024-01-16T12:15:40;2.13;;;1.93;;
12802;SDS011;6465;42.700;23.278;2024-01-16T12:18:07;3.53;;;2.30;;
12802;SDS011;6465;42.700;23.278;2024-01-16T12:20:36;2.07;;;1.87;;
12802;SDS011;6465;42.700;23.278;2024-01-16T12:23:05;1.97;;;1.87;;
12802;SDS011;6465;42.700;23.278;2024-01-16T12:25:33;2.00;;;1.90;;
12802;SDS011;6465;42.700;23.278;2024-01-16T12:28:01;2.13;;;1.93;;
12802;SDS011;6465;42.700;23.278;2024-01-16T12:30:30;2.67;;;2.20;;
12802;SDS011;6465;42.700;23.278;2024-01-16T12:33:04;2.43;;;2.23;;
12802;SDS011;6465;42.700;23.278;2024-01-16T12:35:33;2.80;;;2.60;;
12802;SDS011;6465;42.700;23.278;2024-01-16T12:38:03;3.13;;;2.20;;
12802;SDS011;6465;42.700;23.278;2024-01-16T12:40:31;2.40;;;2.20;;
12802;SDS011;6465;42.700;23.278;2024-01-16T12:42:59;2.73;;;2.60;;
12802;SDS011;6465;42.700;23.278;2024-01-16T12:45:26;2.43;;;2.07;;
12802;SDS011;6465;42.700;23.278;2024-01-16T12:47:53;2.37;;;2.20;;
12802;SDS011;6465;42.700;23.278;2024-01-16T12:50:23;2.33;;;2.17;;
12802;SDS011;6465;42.700;23.278;2024-01-16T12:53:00;2.60;;;2.40;;
12802;SDS011;6465;42.700;23.278;2024-01-16T12:55:29;2.60;;;2.40;;
12802;SDS011;6465;42.700;23.278;2024-01-16T12:58:12;2.37;;;2.27;;
12802;SDS011;6465;42.700;23.278;2024-01-16T13:00:43;3.70;;;2.07;;
12802;SDS011;6465;42.700;23.278;2024-01-16T13:03:19;2.20;;;2.10;;
12802;SDS011;6465;42.700;23.278;2024-01-16T13:05:54;2.57;;;2.37;;
12802;SDS011;6465;42.700;23.278;2024-01-16T13:08:23;2.57;;;2.33;;
12802;SDS011;6465;42.700;23.278;2024-01-16T13:11:03;2.83;;;2.50;;
12802;SDS011;6465;42.700;23.278;2024-01-16T13:13:31;2.97;;;2.57;;
12802;SDS011;6465;42.700;23.278;2024-01-16T13:15:58;6.17;;;2.33;;
12802;SDS011;6465;42.700;23.278;2024-01-16T13:18:26;2.50;;;2.30;;
12802;SDS011;6465;42.700;23.278;2024-01-16T13:20:56;2.00;;;1.90;;
12802;SDS011;6465;42.700;23.278;2024-01-16T13:23:25;2.00;;;1.90;;
12802;SDS011;6465;42.700;23.278;2024-01-16T13:25:54;2.70;;;2.50;;
12802;SDS011;6465;42.700;23.278;2024-01-16T13:28:22;2.10;;;2.00;;
12802;SDS011;6465;42.700;23.278;2024-01-16T13:30:49;3.63;;;2.53;;
12802;SDS011;6465;42.700;23.278;2024-01-16T13:33:17;2.50;;;2.30;;
12802;SDS011;6465;42.700;23.278;2024-01-16T13:35:44;3.03;;;2.83;;
12802;SDS011;6465;42.700;23.278;2024-01-16T13:38:12;2.53;;;2.40;;
12802;SDS011;6465;42.700;23.278;2024-01-16T13:40:42;3.37;;;2.57;;
12802;SDS011;6465;42.700;23.278;2024-01-16T13:43:09;3.67;;;2.60;;
12802;SDS011;6465;42.700;23.278;2024-01-16T13:45:37;3.27;;;2.87;;
12802;SDS011;6465;42.700;23.278;2024-01-16T13:48:06;2.67;;;2.57;;
12802;SDS011;6465;42.700;23.278;2024-01-16T13:50:34;2.43;;;2.23;;
12802;SDS011;6465;42.700;23.278;2024-01-16T13:53:01;2.30;;;2.20;;
12802;SDS011;6465;42.700;23.278;2024-01-16T13:55:29;2.40;;;2.20;;
12802;SDS011;6465;42.700;23.278;2024-01-16T13:57:58;2.53;;;2.40;;
12802;SDS011;6465;42.700;23.278;2024-01-16T14:00:25;4.53;;;2.37;;
12802;SDS011;6465;42.700;23.278;2024-01-16T14:02:52;2.60;;;2.40;;
12802;SDS011;6465;42.700;23.278;2024-01-16T14:05:20;4.67;;;2.93;;
12802;SDS011;6465;42.700;23.278;2024-01-16T14:07:48;2.47;;;2.17;;
12802;SDS011;6465;42.700;23.278;2024-01-16T14:10:17;2.63;;;2.43;;
12802;SDS011;6465;42.700;23.278;2024-01-16T14:12:45;2.73;;;2.47;;
12802;SDS011;6465;42.700;23.278;2024-01-16T14:15:16;3.77;;;2.73;;
12802;SDS011;6465;42.700;23.278;2024-01-16T14:17:46;3.07;;;2.87;;
12802;SDS011;6465;42.700;23.278;2024-01-16T14:20:14;2.77;;;2.53;;
12802;SDS011;6465;42.700;23.278;2024-01-16T14:22:41;4.43;;;2.30;;
12802;SDS011;6465;42.700;23.278;2024-01-16T14:25:09;2.40;;;2.20;;
12802;SDS011;6465;42.700;23.278;2024-01-16T14:27:38;2.57;;;2.37;;
12802;SDS011;6465;42.700;23.278;2024-01-16T14:30:07;2.33;;;2.17;;
12802;SDS011;6465;42.700;23.278;2024-01-16T14:32:37;2.90;;;2.60;;
12802;SDS011;6465;42.700;23.278;2024-01-16T14:35:06;3.10;;;2.90;;
12802;SDS011;6465;42.700;23.278;2024-01-16T14:37:34;2.70;;;2.50;;
12802;SDS011;6465;42.700;23.278;2024-01-16T14:40:02;3.17;;;2.87;;
12802;SDS011;6465;42.700;23.278;2024-01-16T14:42:37;6.10;;;2.67;;
12802;SDS011;6465;42.700;23.278;2024-01-16T14:45:04;3.23;;;3.03;;
12802;SDS011;6465;42.700;23.278;2024-01-16T14:47:32;2.83;;;2.63;;
12802;SDS011;6465;42.700;23.278;2024-01-16T14:50:00;3.33;;;2.77;;
12802;SDS011;6465;42.700;23.278;2024-01-16T14:52:29;3.30;;;3.10;;
12802;SDS011;6465;42.700;23.278;2024-01-16T14:54:57;2.87;;;2.57;;
12802;SDS011;6465;42.700;23.278;2024-01-16T14:57:24;2.77;;;2.57;;